DRK301 VGHS-VQPR
Flight info
| Callsign | DRK301 |
|---|---|
| Flight time | 0h 46m |
| Altitude | 36000 |
| Route | TEGAK1A TEGAK DCT SDP/N0467F350 DCT BOGOP BOGOP1A |
| Aircraft | A319/M-SDE3FGHIRWY/LB1 |
Departure
| Time | 2026-04-28 08:32 |
|---|---|
| Airport | Hazrat Shahjalal International Airport (VGHS) |
Arrival
| Time | 2026-04-28 09:18 |
|---|---|
| Airport | Paro International Airport (VQPR) |
| Time | Latitude | Longitude | Altitude | Speed | Heading |
|---|---|---|---|---|---|
| 2026-04-28 08:02 | 23.84581 | 90.40565 | 36 ft | 0 kts | 54° |
| 2026-04-28 08:22 | 23.84567 | 90.40544 | 36 ft | 4 kts | 52° |
| 2026-04-28 08:23 | 23.84550 | 90.40521 | 35 ft | 4 kts | 46° |
| 2026-04-28 08:23 | 23.84530 | 90.40502 | 35 ft | 4 kts | 27° |
| 2026-04-28 08:23 | 23.84509 | 90.40497 | 34 ft | 3 kts | 327° |
| 2026-04-28 08:23 | 23.84507 | 90.40498 | 34 ft | 0 kts | 323° |
| 2026-04-28 08:26 | 23.84514 | 90.40493 | 36 ft | 4 kts | 323° |
| 2026-04-28 08:26 | 23.84549 | 90.40463 | 36 ft | 9 kts | 323° |
| 2026-04-28 08:26 | 23.84605 | 90.40418 | 36 ft | 12 kts | 323° |
| 2026-04-28 08:26 | 23.84680 | 90.40359 | 36 ft | 12 kts | 324° |
| 2026-04-28 08:27 | 23.84668 | 90.40279 | 36 ft | 13 kts | 235° |
| 2026-04-28 08:27 | 23.84661 | 90.40187 | 36 ft | 14 kts | 317° |
| 2026-04-28 08:27 | 23.84748 | 90.40120 | 36 ft | 16 kts | 323° |
| 2026-04-28 08:27 | 23.84846 | 90.40040 | 35 ft | 19 kts | 323° |
| 2026-04-28 08:28 | 23.84957 | 90.39954 | 36 ft | 20 kts | 324° |
| 2026-04-28 08:28 | 23.85076 | 90.39859 | 35 ft | 22 kts | 324° |
| 2026-04-28 08:28 | 23.85204 | 90.39758 | 36 ft | 23 kts | 324° |
| 2026-04-28 08:28 | 23.85339 | 90.39651 | 36 ft | 25 kts | 324° |
| 2026-04-28 08:29 | 23.85483 | 90.39537 | 36 ft | 26 kts | 323° |
| 2026-04-28 08:29 | 23.85630 | 90.39418 | 36 ft | 26 kts | 323° |
| 2026-04-28 08:29 | 23.85741 | 90.39330 | 35 ft | 13 kts | 324° |
| 2026-04-28 08:29 | 23.85755 | 90.39252 | 33 ft | 13 kts | 236° |
| 2026-04-28 08:30 | 23.85699 | 90.39167 | 36 ft | 15 kts | 233° |
| 2026-04-28 08:30 | 23.85634 | 90.39071 | 36 ft | 17 kts | 233° |
| 2026-04-28 08:30 | 23.85561 | 90.38962 | 35 ft | 19 kts | 233° |
| 2026-04-28 08:30 | 23.85501 | 90.38874 | 35 ft | 11 kts | 226° |
| 2026-04-28 08:31 | 23.85456 | 90.38889 | 34 ft | 0 kts | 145° |
| 2026-04-28 08:31 | 23.85432 | 90.38908 | 35 ft | 21 kts | 143° |
| 2026-04-28 08:31 | 23.85075 | 90.39193 | 36 ft | 101 kts | 144° |
| 2026-04-28 08:31 | 23.84331 | 90.39787 | 102 ft | 155 kts | 142° |
| 2026-04-28 08:32 | 23.83479 | 90.40465 | 858 ft | 150 kts | 143° |
| 2026-04-28 08:32 | 23.82634 | 90.41153 | 1528 ft | 158 kts | 144° |
| 2026-04-28 08:32 | 23.81691 | 90.41920 | 1949 ft | 180 kts | 145° |
| 2026-04-28 08:32 | 23.80553 | 90.42675 | 2395 ft | 204 kts | 158° |
| 2026-04-28 08:33 | 23.79102 | 90.43074 | 2941 ft | 228 kts | 175° |
| 2026-04-28 08:33 | 23.77473 | 90.42912 | 3514 ft | 250 kts | 196° |
| 2026-04-28 08:33 | 23.75891 | 90.42045 | 4388 ft | 259 kts | 218° |
| 2026-04-28 08:33 | 23.74691 | 90.40575 | 5328 ft | 264 kts | 239° |
| 2026-04-28 08:34 | 23.74082 | 90.38679 | 6253 ft | 270 kts | 262° |
| 2026-04-28 08:34 | 23.74200 | 90.36625 | 7160 ft | 275 kts | 286° |
| 2026-04-28 08:34 | 23.75061 | 90.34775 | 8122 ft | 276 kts | 309° |
| 2026-04-28 08:34 | 23.76532 | 90.33442 | 9166 ft | 277 kts | 329° |
| 2026-04-28 08:35 | 23.78263 | 90.32513 | 10130 ft | 280 kts | 330° |
| 2026-04-28 08:35 | 23.79874 | 90.31192 | 10455 ft | 302 kts | 316° |
| 2026-04-28 08:35 | 23.81465 | 90.29619 | 10717 ft | 325 kts | 316° |
| 2026-04-28 08:35 | 23.83184 | 90.27915 | 11190 ft | 338 kts | 316° |
| 2026-04-28 08:36 | 23.84939 | 90.26177 | 11910 ft | 343 kts | 316° |
| 2026-04-28 08:36 | 23.86738 | 90.24439 | 12714 ft | 347 kts | 315° |
| 2026-04-28 08:36 | 23.88503 | 90.22636 | 13504 ft | 349 kts | 314° |
| 2026-04-28 08:36 | 23.90262 | 90.20787 | 14177 ft | 353 kts | 314° |
| 2026-04-28 08:37 | 23.92037 | 90.18909 | 14822 ft | 357 kts | 314° |
| 2026-04-28 08:37 | 23.93833 | 90.17010 | 15457 ft | 362 kts | 314° |
| 2026-04-28 08:37 | 23.95657 | 90.15087 | 16081 ft | 367 kts | 314° |
| 2026-04-28 08:37 | 23.97487 | 90.13169 | 16694 ft | 371 kts | 314° |
| 2026-04-28 08:38 | 23.99364 | 90.11212 | 17302 ft | 376 kts | 314° |
| 2026-04-28 08:38 | 24.01271 | 90.09227 | 17934 ft | 381 kts | 314° |
| 2026-04-28 08:38 | 24.03201 | 90.07219 | 18479 ft | 385 kts | 314° |
| 2026-04-28 08:38 | 24.05152 | 90.05189 | 19031 ft | 389 kts | 314° |
| 2026-04-28 08:39 | 24.06959 | 90.02980 | 19572 ft | 391 kts | 305° |
| 2026-04-28 08:39 | 24.08523 | 90.00543 | 20113 ft | 393 kts | 303° |
| 2026-04-28 08:39 | 24.10095 | 89.98076 | 20640 ft | 396 kts | 303° |
| 2026-04-28 08:39 | 24.11653 | 89.95626 | 21163 ft | 399 kts | 303° |
| 2026-04-28 08:40 | 24.13248 | 89.93120 | 21668 ft | 402 kts | 303° |
| 2026-04-28 08:40 | 24.14853 | 89.90599 | 22155 ft | 406 kts | 303° |
| 2026-04-28 08:40 | 24.16474 | 89.88053 | 22629 ft | 409 kts | 303° |
| 2026-04-28 08:40 | 24.18136 | 89.85507 | 23089 ft | 413 kts | 307° |
| 2026-04-28 08:41 | 24.20135 | 89.83212 | 23505 ft | 420 kts | 316° |
| 2026-04-28 08:41 | 24.22511 | 89.81326 | 23887 ft | 426 kts | 327° |
| 2026-04-28 08:41 | 24.25146 | 89.79785 | 24288 ft | 430 kts | 329° |
| 2026-04-28 08:41 | 24.27765 | 89.78280 | 24688 ft | 432 kts | 329° |
| 2026-04-28 08:42 | 24.30429 | 89.76740 | 25094 ft | 434 kts | 329° |
| 2026-04-28 08:42 | 24.33107 | 89.75187 | 25496 ft | 437 kts | 329° |
| 2026-04-28 08:42 | 24.35800 | 89.73619 | 25892 ft | 439 kts | 329° |
| 2026-04-28 08:42 | 24.38500 | 89.72045 | 26280 ft | 441 kts | 330° |
| 2026-04-28 08:43 | 24.41222 | 89.70462 | 26644 ft | 445 kts | 330° |
| 2026-04-28 08:43 | 24.43963 | 89.68866 | 26990 ft | 448 kts | 330° |
| 2026-04-28 08:43 | 24.46727 | 89.67258 | 27361 ft | 450 kts | 330° |
| 2026-04-28 08:43 | 24.49500 | 89.65649 | 27731 ft | 452 kts | 330° |
| 2026-04-28 08:44 | 24.52290 | 89.64030 | 28095 ft | 455 kts | 330° |
| 2026-04-28 08:44 | 24.55054 | 89.62422 | 28449 ft | 457 kts | 330° |
| 2026-04-28 08:44 | 24.57858 | 89.60789 | 28733 ft | 458 kts | 330° |
| 2026-04-28 08:44 | 24.60682 | 89.59139 | 29147 ft | 459 kts | 330° |
| 2026-04-28 08:45 | 24.63491 | 89.57499 | 29693 ft | 457 kts | 330° |
| 2026-04-28 08:45 | 24.66297 | 89.55863 | 30171 ft | 455 kts | 330° |
| 2026-04-28 08:45 | 24.69087 | 89.54237 | 30627 ft | 454 kts | 330° |
| 2026-04-28 08:45 | 24.71870 | 89.52615 | 31100 ft | 452 kts | 330° |
| 2026-04-28 08:46 | 24.74640 | 89.51000 | 31595 ft | 450 kts | 330° |
| 2026-04-28 08:46 | 24.77399 | 89.49390 | 32081 ft | 448 kts | 330° |
| 2026-04-28 08:46 | 24.80111 | 89.47805 | 32547 ft | 447 kts | 330° |
| 2026-04-28 08:46 | 24.82848 | 89.46205 | 33026 ft | 445 kts | 329° |
| 2026-04-28 08:47 | 24.85581 | 89.44602 | 33508 ft | 444 kts | 329° |
| 2026-04-28 08:47 | 24.88298 | 89.43007 | 33956 ft | 442 kts | 329° |
| 2026-04-28 08:47 | 24.91010 | 89.41414 | 34349 ft | 442 kts | 329° |
| 2026-04-28 08:47 | 24.93727 | 89.39819 | 34714 ft | 443 kts | 329° |
| 2026-04-28 08:48 | 24.96446 | 89.38223 | 35062 ft | 443 kts | 329° |
| 2026-04-28 08:48 | 24.99175 | 89.36621 | 35407 ft | 444 kts | 329° |
| 2026-04-28 08:48 | 25.01906 | 89.35017 | 35691 ft | 447 kts | 329° |
| 2026-04-28 08:49 | 25.07441 | 89.31762 | 35755 ft | 463 kts | 329° |
| 2026-04-28 08:49 | 25.13145 | 89.28410 | 36200 ft | 453 kts | 329° |
| 2026-04-28 08:50 | 25.18664 | 89.25180 | 36213 ft | 445 kts | 328° |
| 2026-04-28 08:50 | 25.24114 | 89.21975 | 35966 ft | 442 kts | 328° |
| 2026-04-28 08:50 | 25.26816 | 89.20376 | 35714 ft | 439 kts | 328° |
| 2026-04-28 08:51 | 25.29473 | 89.18800 | 35767 ft | 441 kts | 328° |
| 2026-04-28 08:51 | 25.34888 | 89.15595 | 35757 ft | 441 kts | 328° |
| 2026-04-28 08:52 | 25.40304 | 89.12395 | 35764 ft | 441 kts | 328° |
| 2026-04-28 08:52 | 25.45720 | 89.09193 | 35759 ft | 441 kts | 328° |
| 2026-04-28 08:53 | 25.51099 | 89.06005 | 35514 ft | 442 kts | 328° |
| 2026-04-28 08:53 | 25.53807 | 89.04399 | 35276 ft | 441 kts | 328° |
| 2026-04-28 08:53 | 25.56508 | 89.02796 | 35041 ft | 441 kts | 328° |
| 2026-04-28 08:53 | 25.59207 | 89.01195 | 34815 ft | 440 kts | 329° |
| 2026-04-28 08:54 | 25.61911 | 88.99591 | 34725 ft | 439 kts | 329° |
| 2026-04-28 08:54 | 25.67294 | 88.96394 | 34753 ft | 438 kts | 329° |
| 2026-04-28 08:55 | 25.73036 | 88.94076 | 34751 ft | 445 kts | 346° |
| 2026-04-28 08:55 | 25.76095 | 88.93811 | 34751 ft | 452 kts | 359° |
| 2026-04-28 08:55 | 25.79219 | 88.94392 | 34746 ft | 460 kts | 13° |
| 2026-04-28 08:55 | 25.82153 | 88.95879 | 34747 ft | 469 kts | 28° |
| 2026-04-28 08:56 | 25.84783 | 88.98061 | 34750 ft | 474 kts | 34° |
| 2026-04-28 08:56 | 25.89977 | 89.02562 | 34744 ft | 474 kts | 33° |
| 2026-04-28 08:57 | 25.95211 | 89.07022 | 34765 ft | 474 kts | 33° |
| 2026-04-28 08:57 | 26.00402 | 89.11454 | 34773 ft | 473 kts | 33° |
| 2026-04-28 08:58 | 26.05604 | 89.15928 | 34765 ft | 473 kts | 33° |
| 2026-04-28 08:58 | 26.10804 | 89.20411 | 34761 ft | 472 kts | 33° |
| 2026-04-28 08:59 | 26.15989 | 89.24889 | 34767 ft | 472 kts | 33° |
| 2026-04-28 08:59 | 26.21178 | 89.29375 | 34761 ft | 472 kts | 33° |
| 2026-04-28 09:00 | 26.26356 | 89.33845 | 34768 ft | 471 kts | 33° |
| 2026-04-28 09:00 | 26.31501 | 89.38292 | 34766 ft | 471 kts | 33° |
| 2026-04-28 09:01 | 26.36672 | 89.42762 | 34766 ft | 470 kts | 33° |
| 2026-04-28 09:01 | 26.41839 | 89.47239 | 34629 ft | 471 kts | 33° |
| 2026-04-28 09:01 | 26.43548 | 89.48723 | 34487 ft | 470 kts | 33° |
| 2026-04-28 09:02 | 26.46990 | 89.51716 | 33922 ft | 468 kts | 33° |
| 2026-04-28 09:02 | 26.49552 | 89.53947 | 33160 ft | 468 kts | 33° |
| 2026-04-28 09:02 | 26.52122 | 89.56184 | 32319 ft | 469 kts | 34° |
| 2026-04-28 09:02 | 26.54707 | 89.58431 | 31425 ft | 471 kts | 34° |
| 2026-04-28 09:03 | 26.57261 | 89.60651 | 30531 ft | 474 kts | 34° |
| 2026-04-28 09:03 | 26.59875 | 89.62924 | 29551 ft | 478 kts | 34° |
| 2026-04-28 09:03 | 26.62508 | 89.65215 | 28441 ft | 481 kts | 34° |
| 2026-04-28 09:03 | 26.65107 | 89.67475 | 27637 ft | 467 kts | 33° |
| 2026-04-28 09:04 | 26.67823 | 89.69371 | 26668 ft | 455 kts | 25° |
| 2026-04-28 09:04 | 26.70582 | 89.71033 | 25671 ft | 448 kts | 24° |
| 2026-04-28 09:04 | 26.73450 | 89.72305 | 24723 ft | 437 kts | 10° |
| 2026-04-28 09:04 | 26.76419 | 89.72521 | 23849 ft | 423 kts | 348° |
| 2026-04-28 09:05 | 26.79091 | 89.71445 | 23545 ft | 396 kts | 328° |
| 2026-04-28 09:05 | 26.81411 | 89.69942 | 23428 ft | 375 kts | 328° |
| 2026-04-28 09:05 | 26.83601 | 89.68580 | 23317 ft | 355 kts | 329° |
| 2026-04-28 09:05 | 26.85719 | 89.67268 | 22962 ft | 342 kts | 324° |
| 2026-04-28 09:06 | 26.87567 | 89.65664 | 22474 ft | 332 kts | 313° |
| 2026-04-28 09:06 | 26.89140 | 89.63809 | 22084 ft | 322 kts | 311° |
| 2026-04-28 09:06 | 26.90628 | 89.62014 | 21914 ft | 307 kts | 310° |
| 2026-04-28 09:06 | 26.92061 | 89.60275 | 21549 ft | 301 kts | 310° |
| 2026-04-28 09:07 | 26.93473 | 89.58556 | 21132 ft | 299 kts | 310° |
| 2026-04-28 09:07 | 26.94887 | 89.56862 | 20698 ft | 296 kts | 314° |
| 2026-04-28 09:07 | 26.96521 | 89.55456 | 20190 ft | 297 kts | 328° |
| 2026-04-28 09:07 | 26.98372 | 89.54509 | 19699 ft | 299 kts | 340° |
| 2026-04-28 09:08 | 27.00411 | 89.54036 | 19266 ft | 300 kts | 352° |
| 2026-04-28 09:08 | 27.02485 | 89.53804 | 18800 ft | 299 kts | 351° |
| 2026-04-28 09:08 | 27.04554 | 89.53563 | 18377 ft | 298 kts | 351° |
| 2026-04-28 09:08 | 27.06610 | 89.53320 | 18029 ft | 294 kts | 351° |
| 2026-04-28 09:09 | 27.08590 | 89.53090 | 17912 ft | 279 kts | 351° |
| 2026-04-28 09:09 | 27.10477 | 89.52870 | 17803 ft | 265 kts | 351° |
| 2026-04-28 09:09 | 27.11666 | 89.52729 | 17687 ft | 255 kts | 350° |
| 2026-04-28 09:09 | 27.13408 | 89.52520 | 17269 ft | 250 kts | 351° |
| 2026-04-28 09:10 | 27.15678 | 89.52246 | 16728 ft | 244 kts | 351° |
| 2026-04-28 09:10 | 27.17325 | 89.52047 | 16432 ft | 234 kts | 350° |
| 2026-04-28 09:10 | 27.18940 | 89.51851 | 15948 ft | 234 kts | 352° |
| 2026-04-28 09:10 | 27.20555 | 89.51653 | 15478 ft | 233 kts | 352° |
| 2026-04-28 09:11 | 27.21623 | 89.51523 | 15148 ft | 233 kts | 352° |
| 2026-04-28 09:11 | 27.23231 | 89.51327 | 14685 ft | 232 kts | 353° |
| 2026-04-28 09:11 | 27.24826 | 89.51136 | 14211 ft | 231 kts | 353° |
| 2026-04-28 09:11 | 27.26428 | 89.50943 | 13757 ft | 232 kts | 353° |
| 2026-04-28 09:12 | 27.28499 | 89.50695 | 13573 ft | 216 kts | 353° |
| 2026-04-28 09:12 | 27.29483 | 89.50556 | 13516 ft | 207 kts | 348° |
| 2026-04-28 09:12 | 27.31113 | 89.49661 | 13256 ft | 194 kts | 322° |
| 2026-04-28 09:12 | 27.31851 | 89.49058 | 13065 ft | 193 kts | 322° |
| 2026-04-28 09:13 | 27.32915 | 89.48195 | 12796 ft | 190 kts | 323° |
| 2026-04-28 09:13 | 27.33993 | 89.47316 | 12527 ft | 189 kts | 322° |
| 2026-04-28 09:13 | 27.35036 | 89.46468 | 12271 ft | 187 kts | 323° |
| 2026-04-28 09:13 | 27.36088 | 89.45612 | 12016 ft | 187 kts | 323° |
| 2026-04-28 09:14 | 27.37134 | 89.44759 | 11745 ft | 185 kts | 322° |
| 2026-04-28 09:14 | 27.38171 | 89.43914 | 11488 ft | 182 kts | 323° |
| 2026-04-28 09:14 | 27.39197 | 89.43080 | 11239 ft | 182 kts | 323° |
| 2026-04-28 09:14 | 27.40224 | 89.42241 | 10979 ft | 182 kts | 322° |
| 2026-04-28 09:15 | 27.41000 | 89.41165 | 10762 ft | 175 kts | 297° |
| 2026-04-28 09:15 | 27.41536 | 89.39962 | 10563 ft | 171 kts | 294° |
| 2026-04-28 09:15 | 27.42037 | 89.38767 | 10322 ft | 170 kts | 294° |
| 2026-04-28 09:15 | 27.42540 | 89.37550 | 10043 ft | 172 kts | 294° |
| 2026-04-28 09:16 | 27.43390 | 89.36635 | 9682 ft | 176 kts | 346° |
| 2026-04-28 09:16 | 27.44491 | 89.36842 | 9296 ft | 160 kts | 44° |
| 2026-04-28 09:16 | 27.44828 | 89.37939 | 8858 ft | 158 kts | 105° |
| 2026-04-28 09:16 | 27.44367 | 89.39062 | 8469 ft | 158 kts | 119° |
| 2026-04-28 09:17 | 27.43869 | 89.40164 | 8105 ft | 156 kts | 117° |
| 2026-04-28 09:17 | 27.43311 | 89.41169 | 7842 ft | 153 kts | 140° |
| 2026-04-28 09:17 | 27.42324 | 89.41558 | 7667 ft | 155 kts | 174° |
| 2026-04-28 09:17 | 27.41309 | 89.41858 | 7421 ft | 146 kts | 149° |
| 2026-04-28 09:18 | 27.40515 | 89.42352 | 7350 ft | 114 kts | 150° |
| 2026-04-28 09:18 | 27.39973 | 89.42695 | 7331 ft | 63 kts | 151° |
| 2026-04-28 09:18 | 27.39692 | 89.42870 | 7324 ft | 39 kts | 151° |
| 2026-04-28 09:18 | 27.39510 | 89.42988 | 7317 ft | 24 kts | 148° |
| 2026-04-28 09:19 | 27.39424 | 89.42985 | 7314 ft | 14 kts | 242° |
| 2026-04-28 09:19 | 27.39467 | 89.42912 | 7317 ft | 13 kts | 333° |
| 2026-04-28 09:19 | 27.39552 | 89.42859 | 7320 ft | 16 kts | 331° |
| 2026-04-28 09:19 | 27.39657 | 89.42794 | 7323 ft | 18 kts | 330° |
| 2026-04-28 09:20 | 27.39775 | 89.42718 | 7327 ft | 21 kts | 330° |
| 2026-04-28 09:20 | 27.39906 | 89.42634 | 7331 ft | 22 kts | 330° |
| 2026-04-28 09:20 | 27.40038 | 89.42550 | 7335 ft | 21 kts | 330° |
| 2026-04-28 09:20 | 27.40161 | 89.42472 | 7339 ft | 20 kts | 330° |
| 2026-04-28 09:21 | 27.40281 | 89.42395 | 7343 ft | 19 kts | 330° |
| 2026-04-28 09:21 | 27.40393 | 89.42323 | 7347 ft | 18 kts | 330° |
| 2026-04-28 09:21 | 27.40499 | 89.42256 | 7351 ft | 17 kts | 330° |
| 2026-04-28 09:21 | 27.40599 | 89.42193 | 7354 ft | 16 kts | 330° |
| 2026-04-28 09:22 | 27.40651 | 89.42156 | 7356 ft | 4 kts | 308° |
| 2026-04-28 09:22 | 27.40643 | 89.42128 | 7356 ft | 5 kts | 239° |
| 2026-04-28 09:22 | 27.40631 | 89.42104 | 7358 ft | 2 kts | 240° |
| 2026-04-28 09:22 | 27.40630 | 89.42103 | 7358 ft | 0 kts | 240° |